Time;durP1;ratioP1;P1;durP2;ratioP2;P2;SDS_P1;SDS_P2;PMS_P1;PMS_P2;Temp;Humidity;BMP_temperature;BMP_pressure;BME280_temperature;BME280_humidity;BME280_pressure;Samples;Min_cycle;Max_cycle;Signal;HPM_P1;HPM_P2
2023/07/30 00:01:47;;;;;;;;;2.00;2.00;;;;;20.69;77.31;100861.00;5006777;28;45384;-67
2023/07/30 00:04:12;;;;;;;;;1.00;1.00;;;;;20.80;77.28;100884.63;5002061;28;45518;-67
2023/07/30 00:06:38;;;;;;;;;1.50;1.50;;;;;20.78;77.04;100893.84;5001849;28;46074;-67
2023/07/30 00:09:03;;;;;;;;;1.00;1.00;;;;;20.81;77.42;100897.19;5001960;28;45726;-67
2023/07/30 00:11:29;;;;;;;;;2.25;1.00;;;;;20.84;76.92;100904.25;5020110;28;45417;-67
2023/07/30 00:13:54;;;;;;;;;4.00;1.00;;;;;20.73;77.32;100896.88;5019990;28;45361;-67
2023/07/30 00:16:20;;;;;;;;;1.50;0.00;;;;;20.70;76.56;100886.28;5001938;28;47827;-67
2023/07/30 00:18:45;;;;;;;;;1.00;1.00;;;;;20.67;76.09;100892.78;5019624;28;45393;-67
2023/07/30 00:21:10;;;;;;;;;0.50;0.50;;;;;20.66;76.19;100891.03;5020152;28;45477;-67
2023/07/30 00:23:36;;;;;;;;;1.00;1.00;;;;;20.77;75.19;100914.69;5001131;28;45439;-67
2023/07/30 00:26:01;;;;;;;;;1.00;1.00;;;;;20.57;74.80;100888.97;5001747;28;48019;-67
2023/07/30 00:28:26;;;;;;;;;2.00;1.00;;;;;20.65;75.70;100902.91;5019584;28;45529;-67
2023/07/30 00:30:52;;;;;;;;;1.00;0.00;;;;;20.48;75.51;100876.97;5009321;28;45408;-67
2023/07/30 00:33:17;;;;;;;;;0.75;0.25;;;;;20.69;75.27;100906.25;4999741;28;45449;-67
2023/07/30 00:35:42;;;;;;;;;0.50;0.50;;;;;20.52;75.17;100878.47;4999605;28;46095;-67
2023/07/30 00:38:08;;;;;;;;;1.75;1.75;;;;;20.67;75.07;100903.63;4999490;28;45460;-67
2023/07/30 00:40:40;;;;;;;;;2.75;0.00;;;;;20.62;75.31;100894.94;4999967;28;45577;-67
2023/07/30 00:43:05;;;;;;;;;0.50;0.50;;;;;20.67;75.35;100903.63;4999761;28;45404;-67
2023/07/30 00:45:31;;;;;;;;;0.50;0.00;;;;;20.54;75.01;100881.91;4981593;28;47251;-67
2023/07/30 00:47:56;;;;;;;;;3.00;0.75;;;;;20.53;75.31;100882.91;4999426;28;45504;-67
2023/07/30 00:50:22;;;;;;;;;0.50;0.00;;;;;20.71;75.10;100916.03;4982078;28;45476;-67
2023/07/30 00:52:48;;;;;;;;;1.00;1.00;;;;;20.53;74.58;100892.88;4999324;28;45460;-67
2023/07/30 00:55:15;;;;;;;;;0.25;0.00;;;;;20.47;74.78;100887.91;4998324;28;46919;-68
2023/07/30 00:57:41;;;;;;;;;2.00;1.00;;;;;20.64;74.12;100922.00;4999404;28;45485;-67
2023/07/30 01:00:08;;;;;;;;;1.00;1.00;;;;;20.64;73.63;100928.28;4981979;28;45679;-67
2023/07/30 01:02:36;;;;;;;;;1.00;1.00;;;;;20.58;73.68;100925.09;5007745;28;45531;-67
2023/07/30 01:05:03;;;;;;;;;1.00;1.00;;;;;20.41;74.12;100920.88;4999279;28;46300;-67
2023/07/30 01:07:31;;;;;;;;;1.00;1.00;;;;;20.61;73.56;100952.84;4997774;28;45706;-67
2023/07/30 01:09:57;;;;;;;;;0.25;0.25;;;;;20.42;73.19;100919.91;4998153;28;45613;-67
2023/07/30 01:12:23;;;;;;;;;0.00;0.00;;;;;20.36;73.11;100922.09;4981414;28;45902;-67
2023/07/30 01:14:50;;;;;;;;;0.00;0.00;;;;;20.37;73.24;100925.66;4999309;28;46676;-67
2023/07/30 01:17:16;;;;;;;;;1.00;1.00;;;;;20.53;72.91;100966.09;4997714;28;45780;-67
2023/07/30 01:19:41;;;;;;;;;1.75;0.50;;;;;20.35;72.95;100942.03;4998682;28;45365;-67
2023/07/30 01:22:06;;;;;;;;;0.00;0.00;;;;;20.42;72.94;100963.28;4999060;28;45563;-67
2023/07/30 01:24:32;;;;;;;;;1.00;1.00;;;;;20.23;73.09;100933.88;4999030;28;45599;-67
2023/07/30 01:27:07;;;;;;;;;1.00;1.00;;;;;20.33;72.75;100959.34;4998918;28;45472;-67
2023/07/30 01:29:54;;;;;;;;;1.00;1.00;;;;;20.34;72.81;100974.66;5012104;28;45457;-67
2023/07/30 01:32:24;;;;;;;;;0.00;0.00;;;;;20.16;72.97;100953.31;5018778;28;45527;-67
2023/07/30 01:34:52;;;;;;;;;0.00;0.00;;;;;20.05;72.88;100944.19;5018847;28;45553;-67
2023/07/30 01:37:18;;;;;;;;;2.25;0.75;;;;;20.24;73.26;100982.56;5000825;28;45572;-67
2023/07/30 01:39:45;;;;;;;;;1.00;0.50;;;;;20.22;73.31;100991.78;5018843;28;45412;-67
2023/07/30 01:42:14;;;;;;;;;0.75;0.75;;;;;20.09;73.22;100972.78;5000864;28;45727;-67
2023/07/30 01:44:40;;;;;;;;;2.00;2.00;;;;;20.22;73.25;100998.06;5018466;28;45472;-67
2023/07/30 01:47:05;;;;;;;;;1.00;0.75;;;;;20.26;73.38;100999.59;5018543;28;45265;-67
2023/07/30 01:49:30;;;;;;;;;1.00;0.00;;;;;20.09;72.89;100981.78;5018660;28;45738;-67
2023/07/30 01:51:56;;;;;;;;;1.25;1.25;;;;;20.05;73.07;100974.84;5018660;28;45443;-67
2023/07/30 01:54:21;;;;;;;;;1.75;0.50;;;;;20.27;73.21;101009.47;5018123;28;45597;-67
2023/07/30 01:56:47;;;;;;;;;2.00;0.00;;;;;20.14;72.47;100987.75;5000845;28;45680;-67
2023/07/30 01:59:12;;;;;;;;;1.00;1.00;;;;;20.22;72.70;101005.34;5018540;28;45324;-67
2023/07/30 02:01:37;;;;;;;;;0.25;0.25;;;;;20.08;72.58;100990.91;5018439;28;45571;-67
2023/07/30 02:04:03;;;;;;;;;0.50;0.50;;;;;20.03;72.40;100982.22;5001697;28;46966;-67
2023/07/30 02:06:28;;;;;;;;;1.50;1.00;;;;;20.18;72.94;101008.25;4998604;28;45435;-67
2023/07/30 02:08:54;;;;;;;;;1.00;0.00;;;;;20.04;72.76;100988.50;4997284;28;45507;-67
2023/07/30 02:11:19;;;;;;;;;0.00;0.00;;;;;20.04;72.49;101002.03;4980932;28;45960;-67
2023/07/30 02:13:44;;;;;;;;;0.00;0.00;;;;;20.01;72.58;100991.41;4998275;28;45409;-67
2023/07/30 02:16:09;;;;;;;;;1.25;0.00;;;;;20.14;72.83;101025.69;4998718;28;45486;-67
2023/07/30 02:18:35;;;;;;;;;1.00;0.00;;;;;20.13;72.38;101006.81;4998465;28;45416;-67
2023/07/30 02:21:00;;;;;;;;;2.75;0.00;;;;;20.11;72.54;101008.78;4980914;28;45314;-67
2023/07/30 02:23:26;;;;;;;;;1.50;0.00;;;;;20.11;73.16;101019.63;4996910;28;46969;-67
2023/07/30 02:25:51;;;;;;;;;0.00;0.00;;;;;19.99;73.02;100997.78;4998464;28;45255;-67
2023/07/30 02:28:16;;;;;;;;;1.00;1.00;;;;;20.04;72.77;101002.03;5001159;28;45318;-67
2023/07/30 02:30:42;;;;;;;;;1.75;1.00;;;;;20.20;72.62;101035.25;5011389;28;45329;-67
2023/07/30 02:33:07;;;;;;;;;4.75;2.00;;;;;20.20;72.62;101035.25;5001548;28;45429;-67
2023/07/30 02:35:32;;;;;;;;;3.00;1.00;;;;;20.02;72.37;101007.56;4983890;28;45347;-67
2023/07/30 02:37:57;;;;;;;;;0.75;0.75;;;;;20.13;72.87;101029.38;5001129;28;52575;-67
2023/07/30 02:40:23;;;;;;;;;0.50;0.50;;;;;19.99;72.83;101000.50;5001575;28;47820;-67
2023/07/30 02:42:48;;;;;;;;;1.00;1.00;;;;;20.05;72.59;101012.78;5001341;28;45465;-67
2023/07/30 02:45:13;;;;;;;;;0.00;0.00;;;;;20.17;72.46;101030.03;5000110;28;45524;-67
2023/07/30 02:47:39;;;;;;;;;2.50;1.00;;;;;20.12;72.75;101027.63;5000023;28;45411;-67
2023/07/30 02:50:05;;;;;;;;;0.75;0.75;;;;;20.09;73.01;101017.00;5001596;28;45412;-67
2023/07/30 02:52:31;;;;;;;;;0.25;0.25;;;;;20.03;72.78;101009.31;5001198;28;45513;-67
2023/07/30 02:54:56;;;;;;;;;1.50;1.00;;;;;19.96;72.55;101005.25;5001421;28;45507;-67
2023/07/30 02:57:22;;;;;;;;;0.00;0.00;;;;;20.09;72.26;101030.56;4983773;28;45420;-67
2023/07/30 02:59:47;;;;;;;;;0.75;0.75;;;;;19.93;72.48;101000.03;5001307;28;45463;-67
2023/07/30 03:02:12;;;;;;;;;0.75;0.75;;;;;19.98;72.43;101006.91;5009769;28;46470;-67
2023/07/30 03:04:38;;;;;;;;;1.00;1.00;;;;;20.10;72.44;101029.59;5001130;28;45466;-67
2023/07/30 03:07:03;;;;;;;;;1.50;1.00;;;;;19.91;72.90;101002.88;5001010;28;45445;-67
2023/07/30 03:09:29;;;;;;;;;1.00;1.00;;;;;19.95;72.69;101014.38;5001076;28;45480;-67
2023/07/30 03:11:54;;;;;;;;;2.00;0.25;;;;;20.10;72.85;101045.84;5000930;28;46589;-67
2023/07/30 03:14:23;;;;;;;;;1.00;1.00;;;;;20.05;72.82;101039.03;5001237;28;45431;-67
2023/07/30 03:16:49;;;;;;;;;1.75;1.00;;;;;19.98;72.52;101028.59;5000997;28;45414;-67
2023/07/30 03:19:14;;;;;;;;;3.75;0.00;;;;;19.87;72.87;101011.31;5001193;28;45274;-67
2023/07/30 03:21:40;;;;;;;;;1.00;1.00;;;;;20.05;73.00;101042.59;4999454;28;47611;-67
2023/07/30 03:24:05;;;;;;;;;1.50;1.00;;;;;19.83;72.48;101013.38;4999589;28;45578;-67
2023/07/30 03:26:30;;;;;;;;;1.00;1.00;;;;;19.98;72.54;101042.13;4999549;28;45681;-67
2023/07/30 03:28:56;;;;;;;;;1.00;0.00;;;;;19.97;72.56;101042.22;5008976;28;45483;-67
2023/07/30 03:31:21;;;;;;;;;0.75;0.50;;;;;19.73;72.78;101014.91;5005816;28;46533;-67
2023/07/30 03:33:46;;;;;;;;;3.25;1.00;;;;;19.92;72.49;101058.78;4998899;28;46194;-67
2023/07/30 03:36:13;;;;;;;;;1.00;1.00;;;;;19.92;72.81;101056.09;5000705;28;45539;-67
2023/07/30 03:38:39;;;;;;;;;2.25;1.75;;;;;19.85;72.57;101046.63;5000665;28;45435;-67
2023/07/30 03:41:06;;;;;;;;;2.00;0.75;;;;;19.94;72.94;101066.81;4999933;28;46351;-67
2023/07/30 03:43:31;;;;;;;;;1.50;0.50;;;;;19.78;72.77;101042.59;5000505;28;46303;-67
2023/07/30 03:45:56;;;;;;;;;0.50;0.00;;;;;19.72;73.09;101040.25;4982841;28;45599;-67
2023/07/30 03:48:22;;;;;;;;;1.75;1.00;;;;;19.73;73.04;101039.28;5000490;28;45313;-67
2023/07/30 03:50:47;;;;;;;;;1.00;1.00;;;;;19.86;72.85;101074.59;4999280;28;46921;-67
2023/07/30 03:53:12;;;;;;;;;1.75;0.75;;;;;19.74;73.24;101059.97;5000320;28;45310;-67
2023/07/30 03:55:38;;;;;;;;;1.75;0.75;;;;;19.61;73.07;101039.13;5000550;28;45246;-67
2023/07/30 03:58:03;;;;;;;;;1.25;1.00;;;;;19.66;73.11;101052.34;5000546;28;45550;-67
2023/07/30 04:00:29;;;;;;;;;3.00;1.75;;;;;19.65;73.34;101055.19;5000329;28;46259;-67
2023/07/30 04:02:54;;;;;;;;;1.00;1.00;;;;;19.58;72.98;101042.03;5008126;28;45317;-67
2023/07/30 04:05:20;;;;;;;;;1.00;1.00;;;;;19.60;73.05;101052.78;4999030;28;45496;-67
2023/07/30 04:07:45;;;;;;;;;3.75;1.00;;;;;19.77;73.36;101090.47;4982325;28;45517;-67
2023/07/30 04:10:10;;;;;;;;;1.00;0.00;;;;;19.61;73.20;101052.69;5000100;28;46168;-67
2023/07/30 04:12:36;;;;;;;;;1.00;1.00;;;;;19.58;72.59;101057.44;5000193;28;45487;-67
2023/07/30 04:15:01;;;;;;;;;1.25;1.25;;;;;19.63;73.01;101068.81;5000344;28;45470;-67
2023/07/30 04:17:26;;;;;;;;;0.00;0.00;;;;;19.55;73.03;101047.66;5000111;28;45599;-67
2023/07/30 04:19:51;;;;;;;;;0.75;0.50;;;;;19.74;73.11;101092.47;4982289;28;46998;-67
2023/07/30 04:22:17;;;;;;;;;1.00;1.00;;;;;19.60;73.01;101069.03;4999852;28;45360;-67
2023/07/30 04:24:42;;;;;;;;;1.00;0.25;;;;;19.72;73.36;101091.72;5000204;28;45425;-67
2023/07/30 04:27:08;;;;;;;;;0.75;0.75;;;;;19.65;73.14;101091.25;4999978;28;45370;-67
2023/07/30 04:29:33;;;;;;;;;1.50;0.75;;;;;19.68;72.84;101098.28;5012906;28;45532;-67
2023/07/30 04:31:58;;;;;;;;;1.75;0.50;;;;;19.49;73.19;101075.13;4999950;28;45435;-67
2023/07/30 04:34:24;;;;;;;;;1.50;1.50;;;;;19.52;73.06;101074.91;4982302;28;45394;-67
2023/07/30 04:36:49;;;;;;;;;1.00;1.00;;;;;19.68;72.97;101103.69;4999697;28;45452;-67
2023/07/30 04:39:14;;;;;;;;;1.00;1.00;;;;;19.56;73.10;101091.84;4999573;28;45401;-67
2023/07/30 04:41:40;;;;;;;;;2.75;0.25;;;;;19.50;72.99;101082.28;4999661;28;45419;-67
2023/07/30 04:44:05;;;;;;;;;1.50;0.50;;;;;19.63;73.25;101113.00;4999827;28;45321;-67
2023/07/30 04:46:33;;;;;;;;;1.00;1.00;;;;;19.47;73.36;101096.00;4981725;28;45479;-67
2023/07/30 04:48:58;;;;;;;;;3.50;2.00;;;;;19.51;73.65;101108.41;4998116;28;46927;-67
2023/07/30 04:51:23;;;;;;;;;2.25;1.00;;;;;19.46;73.54;101101.53;4999339;28;45506;-67
2023/07/30 04:53:49;;;;;;;;;0.50;0.50;;;;;19.56;73.02;101121.63;4998632;28;45351;-67
2023/07/30 04:56:14;;;;;;;;;1.25;1.00;;;;;19.59;73.31;101130.41;4999511;28;45315;-67
2023/07/30 04:58:40;;;;;;;;;1.00;1.00;;;;;19.36;73.54;101102.13;4999547;28;45456;-67
2023/07/30 05:01:05;;;;;;;;;1.75;1.00;;;;;19.52;73.46;101129.06;5000213;28;45317;-67
2023/07/30 05:03:31;;;;;;;;;1.00;1.00;;;;;19.43;73.14;101117.00;5006976;28;45489;-67
2023/07/30 05:05:56;;;;;;;;;0.75;0.75;;;;;19.57;73.15;101134.19;4981574;28;45443;-67
2023/07/30 05:08:21;;;;;;;;;1.00;1.00;;;;;19.36;73.60;101102.13;4999260;28;45638;-67
2023/07/30 05:10:47;;;;;;;;;2.25;1.50;;;;;19.54;73.20;101145.22;4999161;28;45440;-67
2023/07/30 05:13:13;;;;;;;;;3.00;0.75;;;;;19.48;73.29;101141.06;4999490;28;45444;-67
2023/07/30 05:15:38;;;;;;;;;0.75;0.75;;;;;19.38;73.14;101124.53;4999172;28;45405;-67
2023/07/30 05:18:04;;;;;;;;;1.00;0.00;;;;;19.59;73.42;101151.22;4999234;28;45456;-67
2023/07/30 05:20:29;;;;;;;;;2.50;1.00;;;;;19.34;73.31;101114.00;4999101;28;45364;-67
2023/07/30 05:22:54;;;;;;;;;2.25;2.00;;;;;19.44;73.43;101129.56;4999171;28;45547;-67
2023/07/30 05:25:19;;;;;;;;;3.00;1.00;;;;;19.40;73.25;101143.41;4999124;28;45739;-67
2023/07/30 05:27:45;;;;;;;;;1.00;1.00;;;;;19.49;73.62;101155.47;4999014;28;45387;-67
2023/07/30 05:30:10;;;;;;;;;1.00;1.00;;;;;19.45;73.21;101154.81;5012100;28;49364;-67
2023/07/30 05:32:36;;;;;;;;;1.75;1.75;;;;;19.36;73.32;101136.41;4999179;28;45263;-67
2023/07/30 05:35:01;;;;;;;;;2.00;0.50;;;;;19.37;73.42;101136.31;4998837;28;45571;-67
2023/07/30 05:37:27;;;;;;;;;1.50;1.50;;;;;19.54;73.14;101166.88;4998935;28;46227;-67
2023/07/30 05:39:52;;;;;;;;;1.50;1.25;;;;;19.37;73.28;101147.16;4997802;28;45282;-67
2023/07/30 05:42:17;;;;;;;;;3.50;1.00;;;;;19.20;73.19;101118.44;4999067;28;45356;-67
2023/07/30 05:44:43;;;;;;;;;2.25;0.75;;;;;19.34;73.21;101151.91;4998730;28;45281;-67
2023/07/30 05:47:08;;;;;;;;;2.25;2.25;;;;;19.21;73.45;101139.13;4998536;28;45409;-67
2023/07/30 05:49:33;;;;;;;;;3.00;1.25;;;;;19.17;73.30;101118.63;4998877;28;45481;-67
2023/07/30 05:51:59;;;;;;;;;2.00;1.00;;;;;19.33;73.52;101147.44;4998809;28;45342;-67
2023/07/30 05:54:24;;;;;;;;;1.00;1.00;;;;;19.38;73.34;101159.72;4981144;28;45800;-67
2023/07/30 05:56:49;;;;;;;;;0.00;0.00;;;;;19.38;73.28;101154.31;4998776;28;45362;-67
2023/07/30 05:59:15;;;;;;;;;0.75;0.75;;;;;19.45;73.49;101157.50;4997423;28;45358;-67
2023/07/30 06:01:40;;;;;;;;;1.25;1.00;;;;;19.29;73.61;101135.94;5004447;28;46045;-67
2023/07/30 06:04:05;;;;;;;;;2.00;2.00;;;;;19.25;73.36;101131.69;4982462;28;45966;-67
2023/07/30 06:06:31;;;;;;;;;2.25;1.25;;;;;19.45;73.00;101165.63;5012883;28;45420;-67
2023/07/30 06:08:56;;;;;;;;;3.00;1.50;;;;;19.37;73.15;101154.41;5003995;28;46413;-67
2023/07/30 06:11:22;;;;;;;;;1.75;0.25;;;;;19.14;72.96;101121.53;5021936;28;45552;-67
2023/07/30 06:13:48;;;;;;;;;1.25;1.25;;;;;19.45;73.00;101173.75;5021800;28;45608;-67
2023/07/30 06:16:14;;;;;;;;;2.00;1.00;;;;;19.25;73.20;101146.09;5021900;28;45442;-67
2023/07/30 06:18:40;;;;;;;;;2.00;1.00;;;;;19.31;73.22;101152.09;5021607;28;45704;-67
2023/07/30 06:21:05;;;;;;;;;2.75;1.25;;;;;19.32;73.76;101157.41;5022011;28;45396;-68
2023/07/30 06:23:30;;;;;;;;;2.00;1.00;;;;;19.33;72.79;101163.66;5021321;28;45361;-67
2023/07/30 06:25:55;;;;;;;;;1.75;1.75;;;;;19.46;73.18;101189.00;5021569;28;45332;-67
2023/07/30 06:28:21;;;;;;;;;3.75;1.00;;;;;19.38;72.83;101175.13;5021550;28;45317;-67
2023/07/30 06:30:46;;;;;;;;;1.00;1.00;;;;;19.42;72.78;101182.94;5020489;28;45420;-67
2023/07/30 06:33:12;;;;;;;;;4.00;1.00;;;;;19.24;73.05;101155.19;5021457;28;45624;-67
2023/07/30 06:35:37;;;;;;;;;1.50;1.25;;;;;19.49;73.09;101196.94;5015018;28;45931;-67
2023/07/30 06:38:02;;;;;;;;;1.25;1.25;;;;;19.32;73.23;101170.06;5001388;28;45282;-67
2023/07/30 06:40:28;;;;;;;;;1.50;1.50;;;;;19.52;73.11;101202.19;5001799;28;45238;-67
2023/07/30 06:42:54;;;;;;;;;1.00;1.00;;;;;19.48;73.49;101205.16;4983787;28;45779;-68
2023/07/30 06:45:19;;;;;;;;;0.25;0.25;;;;;19.35;73.56;101183.41;5001333;28;46521;-67
2023/07/30 06:47:45;;;;;;;;;2.50;2.50;;;;;19.52;73.60;101206.72;4983224;28;45336;-67
2023/07/30 06:50:10;;;;;;;;;2.00;1.25;;;;;19.51;73.33;101205.88;5001722;28;45466;-67
2023/07/30 06:52:36;;;;;;;;;3.00;1.00;;;;;19.50;73.24;101205.97;5001264;28;46049;-67
2023/07/30 06:55:03;;;;;;;;;1.75;1.75;;;;;19.39;73.18;101199.34;5001446;28;45543;-67
2023/07/30 06:57:29;;;;;;;;;0.25;0.25;;;;;19.40;73.23;101201.09;4999985;28;45380;-68
2023/07/30 06:59:54;;;;;;;;;1.00;1.00;;;;;19.33;73.19;101188.03;5000219;28;45416;-67
2023/07/30 07:02:20;;;;;;;;;0.00;0.00;;;;;19.45;73.02;101203.53;5009427;28;46385;-66
2023/07/30 07:04:45;;;;;;;;;3.25;1.25;;;;;19.47;73.20;101215.13;5001118;28;45641;-68
2023/07/30 07:07:10;;;;;;;;;1.00;1.00;;;;;19.54;72.61;101227.31;5000927;28;45389;-67
2023/07/30 07:09:36;;;;;;;;;2.50;1.75;;;;;19.37;72.73;101197.72;5001462;28;45317;-67
2023/07/30 07:12:01;;;;;;;;;3.00;2.00;;;;;19.57;73.00;101232.53;5000933;28;45416;-67
2023/07/30 07:14:27;;;;;;;;;1.00;1.00;;;;;19.51;73.13;101218.50;5001182;28;46511;-67
2023/07/30 07:16:55;;;;;;;;;2.00;2.00;;;;;19.61;72.31;101228.69;4998632;28;45441;-68
2023/07/30 07:19:20;;;;;;;;;1.00;1.00;;;;;19.58;71.75;101228.88;4999890;28;45542;-68
2023/07/30 07:21:46;;;;;;;;;2.00;1.25;;;;;19.61;72.04;101230.50;5000845;28;45451;-68
2023/07/30 07:24:11;;;;;;;;;2.50;2.00;;;;;19.41;71.90;101188.44;5000854;28;45447;-68
2023/07/30 07:26:37;;;;;;;;;2.00;1.25;;;;;19.56;72.03;101219.97;4999457;28;45390;-68
2023/07/30 07:29:03;;;;;;;;;1.00;1.00;;;;;19.46;72.45;101197.13;5008572;28;45419;-67
2023/07/30 07:31:28;;;;;;;;;2.00;1.75;;;;;19.65;72.02;101225.78;5005023;28;45514;-67
2023/07/30 07:33:54;;;;;;;;;4.25;2.00;;;;;19.50;71.72;101196.00;5000808;28;46104;-67
2023/07/30 07:36:19;;;;;;;;;4.00;2.00;;;;;19.70;72.14;101231.78;4999293;28;45350;-67
2023/07/30 07:38:44;;;;;;;;;1.00;1.00;;;;;19.65;72.22;101228.50;5000763;28;45327;-67
2023/07/30 07:41:17;;;;;;;;;1.25;1.25;;;;;19.75;71.83;101240.53;5000570;28;45389;-68
2023/07/30 07:43:43;;;;;;;;;2.50;2.25;;;;;19.70;71.63;101223.66;4982657;28;47545;-67
2023/07/30 07:46:13;;;;;;;;;3.25;2.00;;;;;19.79;71.57;101237.50;4982762;28;45400;-67
2023/07/30 07:48:40;;;;;;;;;2.75;1.50;;;;;19.77;71.58;101233.16;5000647;28;45341;-67
2023/07/30 07:51:06;;;;;;;;;3.25;1.75;;;;;19.78;71.58;101229.50;5000523;28;45571;-68
2023/07/30 07:53:31;;;;;;;;;2.75;2.00;;;;;19.69;71.34;101213.78;5000251;28;45417;-67
2023/07/30 07:55:56;;;;;;;;;3.75;2.25;;;;;19.76;71.28;101226.88;4982671;28;46033;-67
2023/07/30 07:58:25;;;;;;;;;2.00;2.00;;;;;19.92;70.93;101243.03;5000674;28;45484;-68
2023/07/30 08:00:50;;;;;;;;;3.25;3.00;;;;;19.92;70.00;101247.56;4998959;28;45471;-68
2023/07/30 08:03:15;;;;;;;;;2.00;2.00;;;;;19.88;70.29;101240.59;5007156;28;48138;-68
2023/07/30 08:05:41;;;;;;;;;4.00;2.00;;;;;19.92;70.85;101251.16;5000131;28;45297;-68
2023/07/30 08:08:06;;;;;;;;;1.00;1.00;;;;;19.97;69.89;101259.00;4998937;28;45387;-68
2023/07/30 08:10:32;;;;;;;;;2.00;2.00;;;;;19.83;70.07;101232.78;4982450;28;45626;-68
2023/07/30 08:12:57;;;;;;;;;3.00;2.25;;;;;20.06;69.24;101260.22;5000181;28;46096;-68
2023/07/30 08:15:22;;;;;;;;;2.50;2.50;;;;;19.90;69.38;101238.69;5000095;28;45338;-68
2023/07/30 08:17:48;;;;;;;;;3.25;1.25;;;;;19.94;69.28;101241.06;5000217;28;45386;-68
2023/07/30 08:20:13;;;;;;;;;3.00;3.00;;;;;20.11;69.23;101272.53;4982384;28;45355;-68
2023/07/30 08:22:38;;;;;;;;;2.00;2.00;;;;;20.05;69.26;101248.53;4999851;28;45609;-68
2023/07/30 08:25:04;;;;;;;;;3.00;1.00;;;;;20.10;68.48;101262.66;4999853;28;45321;-68
2023/07/30 08:27:30;;;;;;;;;2.00;1.50;;;;;19.99;68.69;101244.34;4999949;28;45330;-68
2023/07/30 08:29:55;;;;;;;;;3.50;1.75;;;;;20.16;68.44;101269.50;5012978;28;49905;-68
2023/07/30 08:32:20;;;;;;;;;3.25;1.00;;;;;20.20;68.07;101273.78;5001652;28;46855;-68
2023/07/30 08:34:46;;;;;;;;;2.50;2.50;;;;;20.09;68.13;101241.94;5019723;28;45385;-68
2023/07/30 08:37:12;;;;;;;;;1.00;1.00;;;;;20.27;68.04;101269.69;4982417;28;45461;-68
2023/07/30 08:39:37;;;;;;;;;3.75;2.75;;;;;20.17;67.49;101247.72;4999768;28;45384;-68
2023/07/30 08:42:03;;;;;;;;;3.00;2.00;;;;;20.27;67.60;101266.97;4998446;28;46399;-68
2023/07/30 08:44:29;;;;;;;;;3.50;2.50;;;;;20.35;68.39;101277.34;4994098;28;45484;-68
2023/07/30 08:46:54;;;;;;;;;2.25;2.00;;;;;20.30;68.04;101257.78;4998537;28;45436;-68
2023/07/30 08:49:19;;;;;;;;;2.50;2.00;;;;;20.27;67.83;101247.16;4999587;28;45299;-68
2023/07/30 08:51:48;;;;;;;;;2.75;1.00;;;;;20.28;67.75;101248.88;4999331;28;46524;-68
2023/07/30 08:54:15;;;;;;;;;1.00;1.00;;;;;20.28;67.77;101260.59;4999647;28;45250;-68
2023/07/30 08:56:41;;;;;;;;;3.25;2.25;;;;;20.35;67.68;101261.06;4999827;28;45329;-68
2023/07/30 08:59:07;;;;;;;;;2.00;1.00;;;;;20.46;67.82;101280.19;4999558;28;45349;-68
2023/07/30 09:01:37;;;;;;;;;2.75;1.50;;;;;20.53;67.10;101284.28;5003788;28;45967;-68
2023/07/30 09:04:03;;;;;;;;;1.75;1.75;;;;;20.37;67.17;101253.69;5002020;28;45298;-68
2023/07/30 09:06:29;;;;;;;;;3.00;2.50;;;;;20.41;67.31;101257.94;4999597;28;45418;-66
2023/07/30 09:08:54;;;;;;;;;0.25;0.25;;;;;20.34;66.62;101238.50;4997767;28;45416;-66
2023/07/30 09:11:20;;;;;;;;;0.75;0.50;;;;;20.40;66.94;101241.78;4999385;28;45429;-66
2023/07/30 09:13:45;;;;;;;;;2.50;1.50;;;;;20.56;67.59;101261.47;4999171;28;45398;-66
2023/07/30 09:16:13;;;;;;;;;3.00;3.00;;;;;20.60;67.16;101268.47;4999662;28;45442;-67
2023/07/30 09:18:42;;;;;;;;;1.75;1.75;;;;;20.62;67.09;101260.22;4997731;28;45448;-67
2023/07/30 09:21:10;;;;;;;;;4.00;2.00;;;;;20.71;66.47;101276.78;4999292;28;45350;-67
2023/07/30 09:23:42;;;;;;;;;1.00;1.00;;;;;20.56;66.44;101242.50;4997556;28;45939;-67
2023/07/30 09:26:08;;;;;;;;;2.50;1.25;;;;;20.55;66.88;101238.06;4981644;28;45459;-67
2023/07/30 09:28:33;;;;;;;;;3.00;1.00;;;;;20.78;66.17;101273.66;5003782;28;45447;-68
2023/07/30 09:31:06;;;;;;;;;1.00;1.00;;;;;20.69;66.17;101261.56;5007529;28;46129;-68
2023/07/30 09:33:33;;;;;;;;;2.00;2.00;;;;;20.83;65.73;101271.50;4998544;28;45487;-68
2023/07/30 09:36:02;;;;;;;;;1.00;1.00;;;;;20.82;66.14;101261.63;4981483;28;45382;-68
2023/07/30 09:38:30;;;;;;;;;3.00;2.00;;;;;20.72;66.09;101239.69;4998839;28;45587;-68
2023/07/30 09:41:01;;;;;;;;;3.00;2.00;;;;;20.76;65.74;101237.63;5001703;28;46342;-68
2023/07/30 09:43:34;;;;;;;;;1.25;1.25;;;;;20.94;65.21;101268.06;5001129;28;45600;-68
2023/07/30 09:46:05;;;;;;;;;1.75;1.75;;;;;20.91;65.28;101258.28;5002436;28;45337;-68
2023/07/30 09:48:32;;;;;;;;;2.00;2.00;;;;;20.99;65.03;101261.34;5002377;28;45412;-68
2023/07/30 09:51:02;;;;;;;;;1.25;1.25;;;;;20.90;65.13;101251.13;5002198;28;45428;-68
2023/07/30 09:53:34;;;;;;;;;2.00;1.00;;;;;20.83;64.93;101252.50;5002175;28;45451;-68
2023/07/30 09:56:05;;;;;;;;;2.75;2.00;;;;;20.99;63.83;101258.63;5002286;28;45393;-68
2023/07/30 09:58:31;;;;;;;;;2.75;2.00;;;;;21.01;63.28;101259.38;5002487;28;45445;-68
2023/07/30 10:01:00;;;;;;;;;2.00;1.00;;;;;21.18;64.17;101279.09;5002058;28;45355;-68
2023/07/30 10:03:30;;;;;;;;;1.00;0.00;;;;;21.12;64.15;101260.50;5012904;28;45683;-68
2023/07/30 10:06:02;;;;;;;;;1.00;1.00;;;;;21.04;63.21;101233.91;5004164;28;45352;-68
2023/07/30 10:08:30;;;;;;;;;1.00;1.00;;;;;21.12;62.75;101245.09;5003941;28;45436;-66
2023/07/30 10:10:57;;;;;;;;;1.25;1.00;;;;;21.15;62.84;101253.03;5021860;28;45616;-66
2023/07/30 10:13:23;;;;;;;;;2.00;2.00;;;;;21.09;62.47;101243.44;5021793;28;45380;-66
2023/07/30 10:15:49;;;;;;;;;1.25;1.25;;;;;21.28;62.41;101272.03;5003998;28;45503;-66
2023/07/30 10:18:14;;;;;;;;;2.50;2.00;;;;;21.28;62.55;101277.47;5021659;28;45484;-66
2023/07/30 10:20:40;;;;;;;;;2.00;2.00;;;;;21.15;61.69;101252.16;5003787;28;46130;-66
2023/07/30 10:23:06;;;;;;;;;2.00;2.00;;;;;21.19;62.32;101253.69;5003739;28;45274;-66
2023/07/30 10:25:45;;;;;;;;;1.25;1.00;;;;;21.39;61.26;101282.19;5021870;28;45429;-66
2023/07/30 10:28:27;;;;;;;;;2.50;2.00;;;;;21.38;61.73;101277.72;5021598;28;45451;-67
2023/07/30 10:30:59;;;;;;;;;3.00;2.00;;;;;21.45;62.02;101285.34;5011296;28;45348;-66
2023/07/30 10:33:44;;;;;;;;;1.50;1.50;;;;;21.49;61.29;101296.03;4990291;28;45352;-67
2023/07/30 10:36:10;;;;;;;;;3.00;2.00;;;;;21.30;60.94;101253.81;5007617;28;45263;-66
2023/07/30 10:38:35;;;;;;;;;2.00;2.00;;;;;21.50;61.12;101301.34;5001687;28;45284;-66
2023/07/30 10:41:08;;;;;;;;;3.75;2.00;;;;;21.35;60.68;101273.38;5000198;28;47338;-66
2023/07/30 10:43:36;;;;;;;;;3.75;1.25;;;;;21.44;60.20;101280.88;4983800;28;45468;-66
2023/07/30 10:46:02;;;;;;;;;2.50;1.50;;;;;21.33;60.65;101261.72;4983948;28;45487;-66
2023/07/30 10:48:31;;;;;;;;;3.00;2.00;;;;;21.56;59.97;101292.75;5000089;28;45619;-66
2023/07/30 10:50:57;;;;;;;;;2.50;1.50;;;;;21.44;60.01;101271.88;5000243;28;45350;-66
2023/07/30 10:53:22;;;;;;;;;1.00;1.00;;;;;21.48;60.18;101264.41;5001148;28;45351;-66
2023/07/30 10:55:47;;;;;;;;;1.75;1.75;;;;;21.59;59.20;101286.25;5001433;28;45283;-66
2023/07/30 10:58:13;;;;;;;;;3.25;2.75;;;;;21.61;60.39;101277.00;5001472;28;45275;-66
2023/07/30 11:00:39;;;;;;;;;4.00;1.75;;;;;21.70;60.25;101285.47;5001228;28;46317;-66
2023/07/30 11:03:04;;;;;;;;;1.00;1.00;;;;;21.79;59.73;101285.69;5009231;28;45329;-67
2023/07/30 11:05:30;;;;;;;;;2.00;2.00;;;;;21.81;59.54;101289.16;5001412;28;45463;-66
2023/07/30 11:07:56;;;;;;;;;3.75;1.00;;;;;21.76;59.22;101266.03;5001058;28;45358;-66
2023/07/30 11:10:21;;;;;;;;;1.00;1.00;;;;;21.83;59.66;101279.09;5001164;28;45474;-66
2023/07/30 11:12:51;;;;;;;;;2.25;1.25;;;;;21.95;59.19;101298.19;5001136;28;45372;-66
2023/07/30 11:15:17;;;;;;;;;1.00;1.00;;;;;21.91;59.05;101278.50;5001181;28;45406;-66
2023/07/30 11:17:44;;;;;;;;;3.25;3.25;;;;;21.93;58.03;101284.69;4999799;28;45551;-66
2023/07/30 11:20:22;;;;;;;;;1.00;1.00;;;;;21.96;58.41;101286.34;5000962;28;45349;-66